createdAt,value
2017-04-03T00:00:42.232Z,15.98
2017-04-03T00:01:42.256Z,16
2017-04-03T00:02:42.278Z,15.97
2017-04-03T00:03:42.006Z,15.94
2017-04-03T00:04:42.023Z,15.9
2017-04-03T00:05:42.360Z,15.91
2017-04-03T00:06:41.748Z,15.91
2017-04-03T00:07:42.398Z,15.97
2017-04-03T00:08:42.104Z,16
2017-04-03T00:09:42.117Z,15.94
2017-04-03T00:10:42.143Z,15.91
2017-04-03T00:11:42.509Z,15.95
2017-04-03T00:12:42.519Z,15.91
2017-04-03T00:13:42.529Z,15.91
2017-04-03T00:14:42.536Z,15.84
2017-04-03T00:15:42.539Z,15.88
2017-04-03T00:16:42.243Z,15.79
2017-04-03T00:17:42.615Z,15.8
2017-04-03T00:18:42.620Z,15.77
2017-04-03T00:19:42.757Z,15.77
2017-04-03T00:20:42.748Z,15.8
2017-04-03T00:21:42.757Z,15.83
2017-04-03T00:22:42.767Z,15.79
2017-04-03T00:23:42.476Z,15.82
2017-04-03T00:24:42.941Z,15.84
2017-04-03T00:25:42.950Z,15.8
2017-04-03T00:26:42.964Z,15.75
2017-04-03T00:27:42.974Z,15.72
2017-04-03T00:28:42.489Z,15.72
2017-04-03T00:29:42.993Z,15.7
2017-04-03T00:30:43.023Z,15.77
2017-04-03T00:31:43.040Z,15.77
2017-04-03T00:32:43.047Z,15.73
2017-04-03T00:33:43.056Z,15.67
2017-04-03T00:34:43.054Z,15.62
2017-04-03T00:35:43.077Z,15.64
2017-04-03T00:36:42.766Z,15.62
2017-04-03T00:37:43.082Z,15.75
2017-04-03T00:38:43.089Z,15.7
2017-04-03T00:39:43.010Z,15.61
2017-04-03T00:40:42.728Z,15.64
2017-04-03T00:41:43.052Z,15.64
2017-04-03T00:42:43.086Z,15.7
2017-04-03T00:43:42.784Z,15.65
2017-04-03T00:44:43.110Z,15.61
2017-04-03T00:45:43.135Z,15.64
2017-04-03T00:46:43.154Z,15.65
2017-04-03T00:47:43.172Z,15.68
2017-04-03T00:48:43.189Z,15.62
2017-04-03T00:49:43.214Z,15.67
2017-04-03T00:50:43.234Z,15.67
2017-04-03T00:51:42.939Z,15.55
2017-04-03T00:52:43.269Z,15.59
2017-04-03T00:53:43.289Z,15.65
2017-04-03T00:54:43.311Z,15.49
2017-04-03T00:55:43.335Z,15.58
2017-04-03T00:56:43.353Z,15.57
2017-04-03T00:57:43.379Z,15.52
2017-04-03T00:58:43.389Z,15.46
2017-04-03T00:59:43.413Z,15.55
2017-04-03T01:00:43.442Z,15.55
2017-04-03T01:01:43.455Z,15.54
2017-04-03T01:02:43.477Z,15.44
2017-04-03T01:03:43.498Z,15.47
2017-04-03T01:04:43.520Z,15.47
2017-04-03T01:05:43.530Z,15.52
2017-04-03T01:06:43.560Z,15.52
2017-04-03T01:07:43.565Z,15.47
2017-04-03T01:08:43.279Z,15.49
2017-04-03T01:09:43.618Z,15.44
2017-04-03T01:10:43.639Z,15.39
2017-04-03T01:11:43.385Z,15.44
2017-04-03T01:12:43.800Z,15.4
2017-04-03T01:13:43.724Z,15.42
2017-04-03T01:14:43.712Z,15.46
2017-04-03T01:15:43.851Z,15.42
2017-04-03T01:16:43.755Z,15.46
2017-04-03T01:17:43.773Z,15.43
2017-04-03T01:18:43.900Z,15.43
2017-04-03T01:19:43.822Z,15.4
2017-04-03T01:20:43.836Z,15.37
2017-04-03T01:21:43.848Z,15.39
2017-04-03T01:22:43.871Z,15.36
2017-04-03T01:23:44.155Z,15.37
2017-04-03T01:24:43.910Z,15.35
2017-04-03T01:25:43.930Z,15.35
2017-04-03T01:26:43.949Z,15.42
2017-04-03T01:27:44.122Z,15.44
2017-04-03T01:28:43.988Z,15.36
2017-04-03T01:29:44.134Z,15.33
2017-04-03T01:30:44.035Z,15.44
2017-04-03T01:31:44.057Z,15.42
2017-04-03T01:32:44.079Z,15.33
2017-04-03T01:33:44.090Z,15.43
2017-04-03T01:34:44.142Z,15.29
2017-04-03T01:35:44.132Z,15.28
2017-04-03T01:36:44.153Z,15.37
2017-04-03T01:37:43.860Z,15.39
2017-04-03T01:38:44.190Z,15.33
2017-04-03T01:39:44.219Z,15.4
2017-04-03T01:40:44.226Z,15.33
2017-04-03T01:41:44.253Z,15.33
2017-04-03T01:42:44.284Z,15.39
2017-04-03T01:43:44.300Z,15.33
2017-04-03T01:44:44.306Z,15.35
2017-04-03T01:45:44.325Z,15.29
2017-04-03T01:46:44.357Z,15.29
2017-04-03T01:47:44.367Z,15.28
2017-04-03T01:48:44.483Z,15.33
2017-04-03T01:49:44.403Z,15.25
2017-04-03T01:50:44.551Z,15.37
2017-04-03T01:51:44.443Z,15.35
2017-04-03T01:52:44.462Z,15.29
2017-04-03T01:53:44.485Z,15.31
2017-04-03T01:54:44.506Z,15.18
2017-04-03T01:55:44.527Z,15.17
2017-04-03T01:56:44.541Z,15.29
2017-04-03T01:57:44.563Z,15.28
2017-04-03T01:58:44.624Z,15.28
2017-04-03T01:59:44.603Z,15.19
2017-04-03T02:00:44.650Z,15.29
2017-04-03T02:01:44.677Z,15.22
2017-04-03T02:02:44.269Z,15.17
2017-04-03T02:03:44.753Z,15.27
2017-04-03T02:04:44.406Z,15.19
2017-04-03T02:05:44.423Z,15.25
2017-04-03T02:06:44.459Z,15.24
2017-04-03T02:07:44.464Z,15.18
2017-04-03T02:08:44.175Z,15.19
2017-04-03T02:09:44.500Z,15.31
2017-04-03T02:10:44.823Z,15.22
2017-04-03T02:11:44.904Z,15.19
2017-04-03T02:12:44.861Z,15.18
2017-04-03T02:13:44.886Z,15.14
2017-04-03T02:14:44.913Z,15.22
2017-04-03T02:15:44.929Z,15.22
2017-04-03T02:16:44.641Z,15.18
2017-04-03T02:17:44.654Z,15.11
2017-04-03T02:18:44.991Z,15.19
2017-04-03T02:19:44.700Z,15.04
2017-04-03T02:20:45.032Z,15.07
2017-04-03T02:21:45.067Z,15.09
2017-04-03T02:22:44.757Z,15.19
2017-04-03T02:23:44.783Z,15.1
2017-04-03T02:24:45.102Z,15.17
2017-04-03T02:25:44.931Z,15.17
2017-04-03T02:26:45.129Z,15.14
2017-04-03T02:27:45.151Z,15.15
2017-04-03T02:28:45.397Z,15.1
2017-04-03T02:29:45.191Z,15.11
2017-04-03T02:30:45.211Z,15.03
2017-04-03T02:31:45.231Z,15.03
2017-04-03T02:32:45.249Z,15.04
2017-04-03T02:33:45.270Z,15.03
2017-04-03T02:34:45.344Z,15.04
2017-04-03T02:35:45.372Z,15.04
2017-04-03T02:36:45.016Z,15.02
2017-04-03T02:37:45.349Z,15.02
2017-04-03T02:38:45.413Z,15.06
2017-04-03T02:39:45.392Z,14.99
2017-04-03T02:40:45.503Z,14.99
2017-04-03T02:41:45.426Z,15.06
2017-04-03T02:42:45.446Z,15.09
2017-04-03T02:43:45.464Z,14.96
2017-04-03T02:44:45.494Z,14.99
2017-04-03T02:45:45.505Z,15.03
2017-04-03T02:46:45.529Z,14.92
2017-04-03T02:47:45.546Z,15
2017-04-03T02:48:45.561Z,14.88
2017-04-03T02:49:45.583Z,14.97
2017-04-03T02:50:45.603Z,14.97
2017-04-03T02:51:45.737Z,14.89
2017-04-03T02:52:45.641Z,14.96
2017-04-03T02:53:45.657Z,14.94
2017-04-03T02:54:45.680Z,14.92
2017-04-03T02:55:45.698Z,15
2017-04-03T02:56:45.417Z,14.94
2017-04-03T02:57:45.738Z,14.88
2017-04-03T02:58:45.840Z,14.85
2017-04-03T02:59:45.923Z,14.79
2017-04-03T03:00:45.794Z,14.85
2017-04-03T03:01:45.504Z,14.85
2017-04-03T03:02:45.831Z,14.77
2017-04-03T03:03:45.853Z,14.79
2017-04-03T03:04:45.991Z,14.91
2017-04-03T03:05:45.996Z,14.81
2017-04-03T03:06:46.040Z,14.85
2017-04-03T03:07:46.022Z,14.82
2017-04-03T03:08:45.636Z,14.79
2017-04-03T03:09:46.103Z,14.79
2017-04-03T03:10:46.070Z,14.77
2017-04-03T03:11:46.029Z,14.69
2017-04-03T03:12:45.732Z,14.7
2017-04-03T03:13:45.788Z,14.65
2017-04-03T03:14:45.820Z,14.72
2017-04-03T03:15:46.110Z,14.69
2017-04-03T03:16:46.132Z,14.63
2017-04-03T03:17:46.130Z,14.69
2017-04-03T03:18:46.152Z,14.62
2017-04-03T03:19:45.871Z,14.66
2017-04-03T03:20:45.581Z,14.62
2017-04-03T03:21:46.218Z,14.5
2017-04-03T03:22:45.648Z,14.5
2017-04-03T03:23:45.636Z,14.51
2017-04-03T03:24:45.960Z,14.48
2017-04-03T03:25:45.983Z,14.53
2017-04-03T03:26:46.120Z,14.48
2017-04-03T03:27:46.351Z,14.41
2017-04-03T03:28:46.342Z,14.47
2017-04-03T03:29:46.355Z,14.41
2017-04-03T03:30:46.368Z,14.41
2017-04-03T03:31:46.395Z,14.41
2017-04-03T03:32:46.411Z,14.37
2017-04-03T03:33:46.431Z,14.43
2017-04-03T03:34:46.454Z,14.45
2017-04-03T03:35:46.155Z,14.4
2017-04-03T03:36:46.489Z,14.3
2017-04-03T03:37:46.551Z,14.33
2017-04-03T03:38:46.532Z,14.35
2017-04-03T03:39:46.548Z,14.37
2017-04-03T03:40:46.260Z,14.35
2017-04-03T03:41:46.583Z,14.3
2017-04-03T03:42:46.605Z,14.25
2017-04-03T03:43:46.310Z,14.28
2017-04-03T03:44:46.331Z,14.28
2017-04-03T03:45:46.661Z,14.23
2017-04-03T03:46:46.682Z,14.23
2017-04-03T03:47:46.700Z,14.2
2017-04-03T03:48:46.718Z,14.23
2017-04-03T03:49:46.740Z,14.23
2017-04-03T03:50:46.812Z,14.14
2017-04-03T03:51:46.621Z,14.14
2017-04-03T03:52:46.921Z,14.18
2017-04-03T03:53:46.830Z,14.22
2017-04-03T03:54:46.564Z,14.17
2017-04-03T03:55:46.869Z,14.12
2017-04-03T03:56:46.869Z,14.18
2017-04-03T03:57:46.886Z,14.04
2017-04-03T03:58:46.741Z,14.11
2017-04-03T03:59:46.615Z,14.08
2017-04-03T04:00:47.096Z,14.03
2017-04-03T04:01:46.963Z,14.2
2017-04-03T04:02:46.506Z,14.12
2017-04-03T04:03:47.004Z,14.11
2017-04-03T04:04:47.026Z,14.14
2017-04-03T04:05:47.043Z,14.08
2017-04-03T04:06:47.069Z,14.12
2017-04-03T04:07:47.319Z,14.07
2017-04-03T04:08:47.101Z,14.08
2017-04-03T04:09:47.148Z,14
2017-04-03T04:10:47.194Z,14.07
2017-04-03T04:11:46.861Z,14.03
2017-04-03T04:12:47.178Z,14.03
2017-04-03T04:13:47.191Z,13.95
2017-04-03T04:14:47.208Z,13.99
2017-04-03T04:15:47.233Z,14.03
2017-04-03T04:16:47.253Z,13.99
2017-04-03T04:17:47.267Z,13.89
2017-04-03T04:18:47.291Z,13.93
2017-04-03T04:19:47.307Z,13.97
2017-04-03T04:20:47.328Z,13.95
2017-04-03T04:21:47.346Z,13.95
2017-04-03T04:22:47.364Z,13.87
2017-04-03T04:23:47.384Z,13.92
2017-04-03T04:24:47.403Z,13.87
2017-04-03T04:25:47.423Z,13.85
2017-04-03T04:26:47.441Z,13.87
2017-04-03T04:27:47.460Z,13.92
2017-04-03T04:28:47.477Z,13.83
2017-04-03T04:29:47.494Z,13.78
2017-04-03T04:30:47.559Z,13.77
2017-04-03T04:31:47.531Z,13.79
2017-04-03T04:32:47.235Z,13.86
2017-04-03T04:33:47.572Z,13.78
2017-04-03T04:34:47.592Z,13.77
2017-04-03T04:35:47.610Z,13.72
2017-04-03T04:36:47.622Z,13.78
2017-04-03T04:37:47.643Z,13.78
2017-04-03T04:38:47.661Z,13.81
2017-04-03T04:39:47.804Z,13.78
2017-04-03T04:40:47.700Z,13.81
2017-04-03T04:41:47.719Z,13.77
2017-04-03T04:42:47.740Z,13.78
2017-04-03T04:43:47.756Z,13.7
2017-04-03T04:44:47.894Z,13.74
2017-04-03T04:45:47.602Z,13.72
2017-04-03T04:46:47.815Z,13.65
2017-04-03T04:47:47.832Z,13.65
2017-04-03T04:48:47.844Z,13.68
2017-04-03T04:49:47.869Z,13.7
2017-04-03T04:50:47.697Z,13.63
2017-04-03T04:51:47.903Z,13.7
2017-04-03T04:52:48.050Z,13.63
2017-04-03T04:53:47.947Z,13.67
2017-04-03T04:54:47.957Z,13.68
2017-04-03T04:55:47.977Z,13.6
2017-04-03T04:56:48.122Z,13.63
2017-04-03T04:57:48.148Z,13.6
2017-04-03T04:58:48.166Z,13.54
2017-04-03T04:59:47.850Z,13.56
2017-04-03T05:00:48.079Z,13.6
2017-04-03T05:01:47.782Z,13.63
2017-04-03T05:02:48.109Z,13.6
2017-04-03T05:03:47.943Z,13.56
2017-04-03T05:04:48.152Z,13.56
2017-04-03T05:05:48.229Z,13.56
2017-04-03T05:06:48.237Z,13.52
2017-04-03T05:07:48.245Z,13.57
2017-04-03T05:08:48.255Z,13.56
2017-04-03T05:09:48.264Z,13.5
2017-04-03T05:10:48.303Z,13.5
2017-04-03T05:11:48.312Z,13.56
2017-04-03T05:12:48.320Z,13.53
2017-04-03T05:13:48.029Z,13.53
2017-04-03T05:14:48.353Z,13.49
2017-04-03T05:15:48.353Z,13.47
2017-04-03T05:16:48.364Z,13.49
2017-04-03T05:17:48.383Z,13.47
2017-04-03T05:18:48.199Z,13.46
2017-04-03T05:19:48.423Z,13.44
2017-04-03T05:20:48.229Z,13.42
2017-04-03T05:21:48.459Z,13.44
2017-04-03T05:22:48.472Z,13.44
2017-04-03T05:23:48.495Z,13.41
2017-04-03T05:24:48.518Z,13.37
2017-04-03T05:25:48.529Z,13.38
2017-04-03T05:26:48.545Z,13.42
2017-04-03T05:27:48.608Z,13.3
2017-04-03T05:28:48.586Z,13.31
2017-04-03T05:29:48.605Z,13.37
2017-04-03T05:30:48.624Z,13.44
2017-04-03T05:31:48.651Z,13.35
2017-04-03T05:32:48.663Z,13.33
2017-04-03T05:33:48.680Z,13.35
2017-04-03T05:34:48.389Z,13.33
2017-04-03T05:35:48.718Z,13.33
2017-04-03T05:36:48.733Z,13.37
2017-04-03T05:37:48.751Z,13.37
2017-04-03T05:38:48.771Z,13.37
2017-04-03T05:39:48.789Z,13.33
2017-04-03T05:40:48.803Z,13.37
2017-04-03T05:41:48.826Z,13.35
2017-04-03T05:42:48.839Z,13.39
2017-04-03T05:43:48.861Z,13.37
2017-04-03T05:44:48.883Z,13.41
2017-04-03T05:45:48.897Z,13.35
2017-04-03T05:46:48.916Z,13.33
2017-04-03T05:47:48.933Z,13.37
2017-04-03T05:48:48.958Z,13.33
2017-04-03T05:49:48.974Z,13.35
2017-04-03T05:50:48.989Z,13.31
2017-04-03T05:51:49.006Z,13.37
2017-04-03T05:52:49.029Z,13.33
2017-04-03T05:53:49.046Z,13.39
2017-04-03T05:54:49.068Z,13.35
2017-04-03T05:55:49.082Z,13.35
2017-04-03T05:56:49.120Z,13.35
2017-04-03T05:57:49.139Z,13.33
2017-04-03T05:58:49.231Z,13.38
2017-04-03T05:59:49.230Z,13.31
2017-04-03T06:00:49.261Z,13.35
2017-04-03T06:01:49.309Z,13.33
2017-04-03T06:02:49.273Z,13.31
2017-04-03T06:03:49.325Z,13.38
2017-04-03T06:04:49.288Z,13.38
2017-04-03T06:05:49.295Z,13.37
2017-04-03T06:06:49.294Z,13.37
2017-04-03T06:07:49.308Z,13.33
2017-04-03T06:08:49.005Z,13.31
2017-04-03T06:09:49.336Z,13.28
2017-04-03T06:10:49.397Z,13.3
2017-04-03T06:11:49.467Z,13.3
2017-04-03T06:12:49.394Z,13.33
2017-04-03T06:13:49.414Z,13.47
2017-04-03T06:14:48.802Z,13.41
2017-04-03T06:15:49.570Z,13.39
2017-04-03T06:16:49.486Z,13.31
2017-04-03T06:17:49.480Z,13.37
2017-04-03T06:18:49.575Z,13.37
2017-04-03T06:19:49.526Z,13.41
2017-04-03T06:20:49.540Z,13.42
2017-04-03T06:21:49.241Z,13.42
2017-04-03T06:22:49.573Z,13.42
2017-04-03T06:23:49.594Z,13.41
2017-04-03T06:24:49.610Z,13.31
2017-04-03T06:25:49.631Z,13.33
2017-04-03T06:26:49.644Z,13.39
2017-04-03T06:27:49.670Z,13.33
2017-04-03T06:28:49.682Z,13.31
2017-04-03T06:29:49.699Z,13.35
2017-04-03T06:30:49.714Z,13.46
2017-04-03T06:31:49.737Z,13.33
2017-04-03T06:32:49.757Z,13.39
2017-04-03T06:33:49.768Z,13.47
2017-04-03T06:34:49.785Z,13.47
2017-04-03T06:35:49.812Z,13.42
2017-04-03T06:36:49.834Z,13.41
2017-04-03T06:37:49.842Z,13.54
2017-04-03T06:38:49.871Z,13.6
2017-04-03T06:39:49.918Z,13.56
2017-04-03T06:40:49.899Z,13.56
2017-04-03T06:41:49.920Z,13.53
2017-04-03T06:42:49.930Z,13.67
2017-04-03T06:43:49.956Z,13.68
2017-04-03T06:44:49.971Z,13.65
2017-04-03T06:45:49.986Z,13.67
2017-04-03T06:46:50.009Z,13.67
2017-04-03T06:47:50.023Z,13.71
2017-04-03T06:48:50.041Z,13.77
2017-04-03T06:49:50.062Z,13.71
2017-04-03T06:50:50.082Z,13.81
2017-04-03T06:51:50.107Z,13.83
2017-04-03T06:52:50.125Z,13.81
2017-04-03T06:53:50.136Z,13.77
2017-04-03T06:54:49.886Z,13.89
2017-04-03T06:55:50.169Z,13.93
2017-04-03T06:56:49.987Z,13.89
2017-04-03T06:57:49.953Z,13.9
2017-04-03T06:58:50.326Z,13.93
2017-04-03T06:59:50.242Z,13.96
2017-04-03T07:00:50.399Z,13.95
2017-04-03T07:01:50.280Z,13.96
2017-04-03T07:02:50.302Z,13.95
2017-04-03T07:03:50.320Z,13.99
2017-04-03T07:04:50.339Z,14
2017-04-03T07:05:50.357Z,14.04
2017-04-03T07:06:50.369Z,14.03
2017-04-03T07:07:50.392Z,14.05
2017-04-03T07:08:50.416Z,14
2017-04-03T07:09:50.426Z,14.04
2017-04-03T07:10:50.444Z,14.05
2017-04-03T07:11:50.469Z,14.08
2017-04-03T07:12:50.490Z,14.07
2017-04-03T07:13:50.497Z,14.08
2017-04-03T07:14:50.522Z,14.11
2017-04-03T07:15:50.710Z,14.14
2017-04-03T07:16:50.603Z,14.17
2017-04-03T07:17:50.704Z,14.2
2017-04-03T07:18:50.591Z,14.17
2017-04-03T07:19:50.602Z,14.14
2017-04-03T07:20:50.698Z,14.22
2017-04-03T07:21:50.358Z,14.23
2017-04-03T07:22:50.661Z,14.33
2017-04-03T07:23:50.683Z,14.43
2017-04-03T07:24:50.699Z,14.43
2017-04-03T07:25:50.718Z,14.47
2017-04-03T07:26:50.437Z,14.54
2017-04-03T07:27:50.755Z,14.54
2017-04-03T07:28:50.778Z,14.54
2017-04-03T07:29:50.791Z,14.63
2017-04-03T07:30:50.809Z,14.65
2017-04-03T07:31:50.827Z,14.69
2017-04-03T07:32:50.845Z,14.65
2017-04-03T07:33:50.867Z,14.73
2017-04-03T07:34:50.573Z,14.72
2017-04-03T07:35:50.902Z,14.78
2017-04-03T07:36:50.925Z,14.78
2017-04-03T07:37:50.937Z,14.77
2017-04-03T07:38:50.971Z,14.79
2017-04-03T07:39:50.978Z,14.84
2017-04-03T07:40:50.997Z,14.84
2017-04-03T07:41:51.139Z,14.92
2017-04-03T07:42:51.032Z,15
2017-04-03T07:43:51.052Z,15.02
2017-04-03T07:44:51.083Z,15.02
2017-04-03T07:45:51.113Z,15.03
2017-04-03T07:46:51.227Z,15.02
2017-04-03T07:47:51.128Z,15.03
2017-04-03T07:48:51.144Z,15.09
2017-04-03T07:49:51.163Z,15.1
2017-04-03T07:50:51.183Z,15.17
2017-04-03T07:51:51.198Z,15.1
2017-04-03T07:52:51.221Z,15.18
2017-04-03T07:53:51.237Z,15.21
2017-04-03T07:54:51.257Z,15.18
2017-04-03T07:55:51.270Z,15.18
2017-04-03T07:56:51.293Z,15.15
2017-04-03T07:57:51.309Z,15.15
2017-04-03T07:58:51.330Z,15.1
2017-04-03T07:59:51.356Z,15.21
2017-04-03T08:00:51.365Z,15.1
2017-04-03T08:01:51.388Z,15.14
2017-04-03T08:02:51.405Z,15.18
2017-04-03T08:03:51.424Z,15.19
2017-04-03T08:04:51.438Z,15.24
2017-04-03T08:05:51.461Z,15.14
2017-04-03T08:06:51.166Z,15.18
2017-04-03T08:07:51.497Z,15.21
2017-04-03T08:08:51.205Z,15.14
2017-04-03T08:09:51.543Z,15.21
2017-04-03T08:10:51.556Z,15.14
2017-04-03T08:11:51.568Z,15.29
2017-04-03T08:12:51.595Z,15.21
2017-04-03T08:13:51.650Z,15.27
2017-04-03T08:14:51.641Z,15.27
2017-04-03T08:15:51.650Z,15.18
2017-04-03T08:16:51.672Z,15.28
2017-04-03T08:17:51.719Z,15.24
2017-04-03T08:18:51.707Z,15.17
2017-04-03T08:19:51.410Z,15.25
2017-04-03T08:20:51.749Z,15.24
2017-04-03T08:21:51.771Z,15.28
2017-04-03T08:22:51.784Z,15.27
2017-04-03T08:23:51.807Z,15.31
2017-04-03T08:24:51.828Z,15.25
2017-04-03T08:25:51.838Z,15.36
2017-04-03T08:26:51.854Z,15.35
2017-04-03T08:27:51.881Z,15.4
2017-04-03T08:28:51.899Z,15.44
2017-04-03T08:29:51.964Z,15.44
2017-04-03T08:30:51.941Z,15.4
2017-04-03T08:31:51.954Z,15.44
2017-04-03T08:32:51.974Z,15.47
2017-04-03T08:33:51.993Z,15.43
2017-04-03T08:34:52.008Z,15.44
2017-04-03T08:35:52.037Z,15.54
2017-04-03T08:36:52.075Z,15.51
2017-04-03T08:37:52.069Z,15.57
2017-04-03T08:38:52.090Z,15.51
2017-04-03T08:39:52.116Z,15.52
2017-04-03T08:40:52.136Z,15.47
2017-04-03T08:41:52.149Z,15.51
2017-04-03T08:42:52.209Z,15.51
2017-04-03T08:43:52.191Z,15.57
2017-04-03T08:44:52.212Z,15.51
2017-04-03T08:45:52.227Z,15.61
2017-04-03T08:46:52.247Z,15.55
2017-04-03T08:47:52.383Z,15.52
2017-04-03T08:48:52.281Z,15.52
2017-04-03T08:49:52.300Z,15.52
2017-04-03T08:50:52.323Z,15.52
2017-04-03T08:51:52.335Z,15.52
2017-04-03T08:52:52.353Z,15.52
2017-04-03T08:53:52.376Z,15.52
2017-04-03T08:54:52.397Z,15.51
2017-04-03T08:55:52.417Z,15.52
2017-04-03T08:56:52.433Z,15.51
2017-04-03T08:57:52.456Z,15.58
2017-04-03T08:58:52.478Z,15.49
2017-04-03T08:59:52.497Z,15.57
2017-04-03T09:00:52.518Z,15.54
2017-04-03T09:01:52.533Z,15.54
2017-04-03T09:02:52.553Z,15.47
2017-04-03T09:03:52.565Z,15.57
2017-04-03T09:04:52.587Z,15.51
2017-04-03T09:05:52.609Z,15.52
2017-04-03T09:06:52.630Z,15.52
2017-04-03T09:07:52.653Z,15.58
2017-04-03T09:08:52.666Z,15.58
2017-04-03T09:09:52.689Z,15.61
2017-04-03T09:10:52.709Z,15.55
2017-04-03T09:11:52.725Z,15.64
2017-04-03T09:12:52.746Z,15.65
2017-04-03T09:13:52.773Z,15.61
2017-04-03T09:14:52.474Z,15.67
2017-04-03T09:15:52.805Z,15.59
2017-04-03T09:16:52.825Z,15.59
2017-04-03T09:17:52.844Z,15.68
2017-04-03T09:18:52.864Z,15.59
2017-04-03T09:19:52.891Z,15.58
2017-04-03T09:20:52.591Z,15.62
2017-04-03T09:21:52.615Z,15.61
2017-04-03T09:22:52.944Z,15.64
2017-04-03T09:23:52.962Z,15.58
2017-04-03T09:24:52.979Z,15.61
2017-04-03T09:25:52.684Z,15.59
2017-04-03T09:26:53.019Z,15.61
2017-04-03T09:27:53.040Z,15.62
2017-04-03T09:28:52.752Z,15.58
2017-04-03T09:29:53.079Z,15.68
2017-04-03T09:30:52.787Z,15.68
2017-04-03T09:31:53.112Z,15.65
2017-04-03T09:32:53.135Z,15.65
2017-04-03T09:33:53.196Z,15.62
2017-04-03T09:34:53.172Z,15.67
2017-04-03T09:35:53.191Z,15.61
2017-04-03T09:36:53.211Z,15.64
2017-04-03T09:37:53.232Z,15.72
2017-04-03T09:38:53.251Z,15.75
2017-04-03T09:39:53.273Z,15.73
2017-04-03T09:40:53.291Z,15.68
2017-04-03T09:41:52.998Z,15.75
2017-04-03T09:42:53.333Z,15.77
2017-04-03T09:43:53.350Z,15.72
2017-04-03T09:44:53.369Z,15.58
2017-04-03T09:45:53.394Z,15.67
2017-04-03T09:46:53.411Z,15.65
2017-04-03T09:47:53.430Z,15.64
2017-04-03T09:48:53.449Z,15.7
2017-04-03T09:49:53.477Z,15.72
2017-04-03T09:50:53.179Z,15.72
2017-04-03T09:51:53.508Z,15.76
2017-04-03T09:52:53.524Z,15.79
2017-04-03T09:53:53.553Z,15.72
2017-04-03T09:54:53.560Z,15.76
2017-04-03T09:55:53.579Z,15.83
2017-04-03T09:56:53.598Z,15.79
2017-04-03T09:57:53.627Z,15.8
2017-04-03T09:58:53.328Z,15.8
2017-04-03T09:59:53.665Z,15.84
2017-04-03T10:00:53.689Z,15.91
2017-04-03T10:01:53.733Z,15.91
2017-04-03T10:02:53.742Z,15.95
2017-04-03T10:03:53.748Z,15.9
2017-04-03T10:04:53.809Z,15.91
2017-04-03T10:05:53.828Z,15.91
2017-04-03T10:06:53.800Z,15.91
2017-04-03T10:07:53.826Z,15.88
2017-04-03T10:08:53.837Z,15.9
2017-04-03T10:09:53.960Z,15.88
2017-04-03T10:10:53.970Z,15.92
2017-04-03T10:11:53.978Z,15.94
2017-04-03T10:12:54.000Z,15.88
2017-04-03T10:13:53.937Z,15.91
2017-04-03T10:14:54.017Z,15.9
2017-04-03T10:15:54.027Z,15.92
2017-04-03T10:16:54.036Z,15.77
2017-04-03T10:17:54.015Z,15.97
2017-04-03T10:18:54.044Z,15.91
2017-04-03T10:19:54.054Z,15.9
2017-04-03T10:20:54.078Z,15.86
2017-04-03T10:21:54.100Z,15.91
2017-04-03T10:22:54.112Z,15.92
2017-04-03T10:23:54.144Z,15.94
2017-04-03T10:24:54.156Z,15.88
2017-04-03T10:25:54.176Z,15.91
2017-04-03T10:26:54.195Z,15.9
2017-04-03T10:27:54.220Z,15.91
2017-04-03T10:28:54.234Z,15.91
2017-04-03T10:29:54.256Z,15.9
2017-04-03T10:30:54.281Z,15.94
2017-04-03T10:31:54.307Z,15.97
2017-04-03T10:32:54.310Z,16
2017-04-03T10:33:54.333Z,16
2017-04-03T10:34:54.348Z,16.01
2017-04-03T10:35:54.375Z,16.02
2017-04-03T10:36:54.392Z,16.02
2017-04-03T10:37:54.415Z,15.97
2017-04-03T10:38:54.433Z,16.08
2017-04-03T10:39:54.453Z,15.98
2017-04-03T10:40:54.483Z,16.05
2017-04-03T10:41:54.507Z,16
2017-04-03T10:42:54.526Z,16.01
2017-04-03T10:43:54.547Z,16.02
2017-04-03T10:44:54.563Z,16.08
2017-04-03T10:45:54.579Z,16.09
2017-04-03T10:46:54.614Z,16.01
2017-04-03T10:47:54.627Z,16.09
2017-04-03T10:48:54.631Z,16.01
2017-04-03T10:49:54.656Z,16.02
2017-04-03T10:50:54.669Z,16.08
2017-04-03T10:51:54.707Z,15.94
2017-04-03T10:52:54.716Z,15.97
2017-04-03T10:53:54.752Z,16.04
2017-04-03T10:54:54.750Z,15.97
2017-04-03T10:55:54.457Z,15.92
2017-04-03T10:56:54.486Z,15.95
2017-04-03T10:57:54.808Z,15.91
2017-04-03T10:58:54.830Z,15.92
2017-04-03T10:59:54.848Z,15.97
2017-04-03T11:00:54.869Z,15.95
2017-04-03T11:01:54.888Z,15.91
2017-04-03T11:02:54.911Z,15.9
2017-04-03T11:03:54.929Z,15.97
2017-04-03T11:04:54.946Z,16
2017-04-03T11:05:54.657Z,15.86
2017-04-03T11:06:54.988Z,15.88
2017-04-03T11:07:55.012Z,15.94
2017-04-03T11:08:55.029Z,15.92
2017-04-03T11:09:54.740Z,15.91
2017-04-03T11:10:55.062Z,15.95
2017-04-03T11:11:55.089Z,16
2017-04-03T11:12:55.107Z,15.94
2017-04-03T11:13:55.128Z,15.95
2017-04-03T11:14:54.858Z,15.91
2017-04-03T11:15:55.173Z,15.9
2017-04-03T11:16:55.183Z,15.92
2017-04-03T11:17:55.210Z,15.94
2017-04-03T11:18:55.228Z,15.91
2017-04-03T11:19:55.247Z,15.86
2017-04-03T11:20:55.271Z,15.91
2017-04-03T11:21:55.285Z,15.94
2017-04-03T11:22:54.998Z,15.82
2017-04-03T11:23:55.331Z,15.82
2017-04-03T11:24:55.457Z,15.8
2017-04-03T11:25:55.364Z,15.84
2017-04-03T11:26:55.390Z,15.8
2017-04-03T11:27:55.406Z,15.84
2017-04-03T11:28:55.429Z,15.8
2017-04-03T11:29:55.282Z,15.8
2017-04-03T11:30:55.469Z,15.83
2017-04-03T11:31:55.486Z,15.8
2017-04-03T11:32:55.504Z,15.84
2017-04-03T11:33:55.250Z,15.79
2017-04-03T11:34:55.546Z,15.79
2017-04-03T11:35:55.564Z,15.68
2017-04-03T11:36:55.597Z,15.76
2017-04-03T11:37:55.602Z,15.72
2017-04-03T11:38:55.620Z,15.64
2017-04-03T11:39:55.641Z,15.68
2017-04-03T11:40:55.667Z,15.76
2017-04-03T11:41:55.678Z,15.68
2017-04-03T11:42:55.701Z,15.72
2017-04-03T11:43:55.726Z,15.7
2017-04-03T11:44:55.744Z,15.72
2017-04-03T11:45:55.453Z,15.68
2017-04-03T11:46:55.781Z,15.68
2017-04-03T11:47:55.801Z,15.82
2017-04-03T11:48:55.818Z,15.84
2017-04-03T11:49:55.843Z,15.77
2017-04-03T11:50:55.941Z,15.72
2017-04-03T11:51:55.881Z,15.86
2017-04-03T11:52:55.584Z,15.79
2017-04-03T11:53:55.923Z,15.79
2017-04-03T11:54:55.941Z,15.83
2017-04-03T11:55:55.974Z,15.79
2017-04-03T11:56:55.988Z,15.79
2017-04-03T11:57:56.007Z,15.77
2017-04-03T11:58:56.026Z,15.77
2017-04-03T11:59:56.044Z,15.79
2017-04-03T12:00:56.065Z,15.84
2017-04-03T12:01:56.083Z,15.8
2017-04-03T12:02:55.792Z,15.82
2017-04-03T12:03:56.116Z,15.84
2017-04-03T12:04:56.140Z,15.84
2017-04-03T12:05:56.158Z,15.83
2017-04-03T12:06:56.182Z,15.77
2017-04-03T12:07:56.206Z,15.82
2017-04-03T12:08:56.219Z,15.86
2017-04-03T12:09:56.238Z,15.86
2017-04-03T12:10:56.262Z,15.8
2017-04-03T12:11:56.278Z,15.92
2017-04-03T12:12:56.298Z,15.86
2017-04-03T12:13:56.319Z,15.79
2017-04-03T12:14:56.336Z,15.88
2017-04-03T12:15:56.362Z,15.79
2017-04-03T12:16:56.381Z,15.82
2017-04-03T12:17:56.097Z,15.84
2017-04-03T12:18:56.103Z,15.76
2017-04-03T12:19:56.437Z,15.77
2017-04-03T12:20:56.500Z,15.83
2017-04-03T12:21:56.477Z,15.76
2017-04-03T12:22:56.493Z,15.76
2017-04-03T12:23:56.518Z,15.84
2017-04-03T12:24:56.535Z,15.79
2017-04-03T12:25:56.552Z,15.94
2017-04-03T12:26:56.263Z,15.91
2017-04-03T12:27:56.283Z,15.91
2017-04-03T12:28:56.610Z,15.95
2017-04-03T12:29:56.633Z,16.01
2017-04-03T12:30:56.341Z,15.97
2017-04-03T12:31:56.672Z,16
2017-04-03T12:32:56.695Z,16.04
2017-04-03T12:33:56.401Z,16.02
2017-04-03T12:34:56.737Z,16.12
2017-04-03T12:35:56.752Z,16.09
2017-04-03T12:36:56.772Z,16.15
2017-04-03T12:37:56.813Z,16.04
2017-04-03T12:38:56.814Z,16.13
2017-04-03T12:39:56.836Z,16.08
2017-04-03T12:40:56.858Z,16.12
2017-04-03T12:41:56.566Z,16.15
2017-04-03T12:42:56.889Z,16.13
2017-04-03T12:43:56.919Z,16.16
2017-04-03T12:44:56.939Z,16.2
2017-04-03T12:45:56.952Z,16.17
2017-04-03T12:46:56.985Z,16.16
2017-04-03T12:47:57.000Z,16.21
2017-04-03T12:48:57.033Z,16.24
2017-04-03T12:49:57.048Z,16.2
2017-04-03T12:50:57.051Z,16.15
2017-04-03T12:51:57.074Z,16.17
2017-04-03T12:52:56.780Z,16.23
2017-04-03T12:53:57.114Z,16.15
2017-04-03T12:54:57.133Z,16.26
2017-04-03T12:55:57.171Z,16.16
2017-04-03T12:56:57.181Z,16.2